sensor_id;sensor_type;location;lat;lon;timestamp;P1;durP1;ratioP1;P2;durP2;ratioP2
45043;SDS011;30784;48.490;9.688;2022-12-07T00:01:39;16.70;;;9.32;;
45043;SDS011;30784;48.490;9.688;2022-12-07T00:04:06;14.95;;;8.07;;
45043;SDS011;30784;48.490;9.688;2022-12-07T00:06:42;17.90;;;10.75;;
45043;SDS011;30784;48.490;9.688;2022-12-07T00:09:10;20.10;;;9.98;;
45043;SDS011;30784;48.490;9.688;2022-12-07T00:11:37;17.20;;;9.35;;
45043;SDS011;30784;48.490;9.688;2022-12-07T00:14:05;18.73;;;9.80;;
45043;SDS011;30784;48.490;9.688;2022-12-07T00:16:37;15.95;;;8.30;;
45043;SDS011;30784;48.490;9.688;2022-12-07T00:19:05;17.88;;;9.40;;
45043;SDS011;30784;48.490;9.688;2022-12-07T00:21:32;19.02;;;9.25;;
45043;SDS011;30784;48.490;9.688;2022-12-07T00:23:59;16.77;;;9.05;;
45043;SDS011;30784;48.490;9.688;2022-12-07T00:26:27;18.48;;;9.48;;
45043;SDS011;30784;48.490;9.688;2022-12-07T00:29:01;24.85;;;13.98;;
45043;SDS011;30784;48.490;9.688;2022-12-07T00:31:30;28.20;;;15.13;;
45043;SDS011;30784;48.490;9.688;2022-12-07T00:34:03;18.80;;;10.32;;
45043;SDS011;30784;48.490;9.688;2022-12-07T00:36:36;17.40;;;9.30;;
45043;SDS011;30784;48.490;9.688;2022-12-07T00:39:03;17.10;;;8.73;;
45043;SDS011;30784;48.490;9.688;2022-12-07T00:41:29;15.48;;;8.35;;
45043;SDS011;30784;48.490;9.688;2022-12-07T00:44:04;15.07;;;8.38;;
45043;SDS011;30784;48.490;9.688;2022-12-07T00:46:39;15.23;;;8.13;;
45043;SDS011;30784;48.490;9.688;2022-12-07T00:49:05;15.27;;;8.13;;
45043;SDS011;30784;48.490;9.688;2022-12-07T00:51:30;20.10;;;11.30;;
45043;SDS011;30784;48.490;9.688;2022-12-07T00:53:56;24.60;;;14.63;;
45043;SDS011;30784;48.490;9.688;2022-12-07T00:56:25;16.58;;;9.38;;
45043;SDS011;30784;48.490;9.688;2022-12-07T00:59:03;15.43;;;8.90;;
45043;SDS011;30784;48.490;9.688;2022-12-07T01:01:33;12.65;;;7.47;;
45043;SDS011;30784;48.490;9.688;2022-12-07T01:04:08;12.32;;;6.70;;
45043;SDS011;30784;48.490;9.688;2022-12-07T01:06:34;13.05;;;7.32;;
45043;SDS011;30784;48.490;9.688;2022-12-07T01:09:00;12.65;;;6.47;;
45043;SDS011;30784;48.490;9.688;2022-12-07T01:11:29;13.68;;;7.93;;
45043;SDS011;30784;48.490;9.688;2022-12-07T01:13:58;12.02;;;6.70;;
45043;SDS011;30784;48.490;9.688;2022-12-07T01:16:26;11.88;;;6.68;;
45043;SDS011;30784;48.490;9.688;2022-12-07T01:18:54;11.85;;;6.72;;
45043;SDS011;30784;48.490;9.688;2022-12-07T01:21:35;13.50;;;6.88;;
45043;SDS011;30784;48.490;9.688;2022-12-07T01:24:03;12.52;;;6.13;;
45043;SDS011;30784;48.490;9.688;2022-12-07T01:26:35;13.70;;;7.00;;
45043;SDS011;30784;48.490;9.688;2022-12-07T01:29:04;12.93;;;6.55;;
45043;SDS011;30784;48.490;9.688;2022-12-07T01:31:30;11.55;;;6.15;;
45043;SDS011;30784;48.490;9.688;2022-12-07T01:33:57;12.57;;;5.78;;
45043;SDS011;30784;48.490;9.688;2022-12-07T01:39:02;10.95;;;5.63;;
45043;SDS011;30784;48.490;9.688;2022-12-07T01:41:42;10.57;;;5.72;;
45043;SDS011;30784;48.490;9.688;2022-12-07T01:44:16;10.75;;;5.65;;
45043;SDS011;30784;48.490;9.688;2022-12-07T01:46:47;12.10;;;6.68;;
45043;SDS011;30784;48.490;9.688;2022-12-07T01:49:17;11.93;;;6.55;;
45043;SDS011;30784;48.490;9.688;2022-12-07T01:51:47;10.65;;;5.78;;
45043;SDS011;30784;48.490;9.688;2022-12-07T01:54:16;11.32;;;5.53;;
45043;SDS011;30784;48.490;9.688;2022-12-07T01:56:43;10.40;;;5.68;;
45043;SDS011;30784;48.490;9.688;2022-12-07T01:59:14;9.82;;;5.40;;
45043;SDS011;30784;48.490;9.688;2022-12-07T02:01:42;10.68;;;5.60;;
45043;SDS011;30784;48.490;9.688;2022-12-07T02:04:07;10.98;;;5.57;;
45043;SDS011;30784;48.490;9.688;2022-12-07T02:06:33;10.88;;;5.65;;
45043;SDS011;30784;48.490;9.688;2022-12-07T02:09:00;9.38;;;5.18;;
45043;SDS011;30784;48.490;9.688;2022-12-07T02:11:26;10.15;;;5.28;;
45043;SDS011;30784;48.490;9.688;2022-12-07T02:13:51;9.95;;;5.47;;
45043;SDS011;30784;48.490;9.688;2022-12-07T02:27:28;10.57;;;5.30;;
45043;SDS011;30784;48.490;9.688;2022-12-07T02:30:00;10.23;;;5.38;;
45043;SDS011;30784;48.490;9.688;2022-12-07T02:35:30;10.23;;;5.05;;
45043;SDS011;30784;48.490;9.688;2022-12-07T02:38:14;10.52;;;5.13;;
45043;SDS011;30784;48.490;9.688;2022-12-07T02:41:02;9.07;;;4.72;;
45043;SDS011;30784;48.490;9.688;2022-12-07T02:43:43;10.43;;;4.82;;
45043;SDS011;30784;48.490;9.688;2022-12-07T02:46:16;9.50;;;4.93;;
45043;SDS011;30784;48.490;9.688;2022-12-07T02:48:46;9.23;;;4.30;;
45043;SDS011;30784;48.490;9.688;2022-12-07T02:51:12;9.07;;;4.63;;
45043;SDS011;30784;48.490;9.688;2022-12-07T02:53:41;9.10;;;4.72;;
45043;SDS011;30784;48.490;9.688;2022-12-07T02:56:12;9.70;;;4.90;;
45043;SDS011;30784;48.490;9.688;2022-12-07T02:58:56;9.65;;;4.78;;
45043;SDS011;30784;48.490;9.688;2022-12-07T03:18:38;10.20;;;5.47;;
45043;SDS011;30784;48.490;9.688;2022-12-07T03:21:10;11.02;;;5.47;;
45043;SDS011;30784;48.490;9.688;2022-12-07T03:23:40;8.93;;;4.70;;
45043;SDS011;30784;48.490;9.688;2022-12-07T03:26:08;10.27;;;5.22;;
45043;SDS011;30784;48.490;9.688;2022-12-07T03:28:41;8.85;;;4.55;;
45043;SDS011;30784;48.490;9.688;2022-12-07T03:31:17;9.85;;;4.85;;
45043;SDS011;30784;48.490;9.688;2022-12-07T03:33:56;10.07;;;5.00;;
45043;SDS011;30784;48.490;9.688;2022-12-07T03:36:32;9.15;;;4.43;;
45043;SDS011;30784;48.490;9.688;2022-12-07T03:41:59;10.15;;;5.25;;
45043;SDS011;30784;48.490;9.688;2022-12-07T03:44:28;10.63;;;5.80;;
45043;SDS011;30784;48.490;9.688;2022-12-07T03:47:00;10.52;;;5.57;;
45043;SDS011;30784;48.490;9.688;2022-12-07T03:49:41;12.15;;;6.57;;
45043;SDS011;30784;48.490;9.688;2022-12-07T03:55:14;12.55;;;6.93;;
45043;SDS011;30784;48.490;9.688;2022-12-07T03:57:44;12.20;;;6.03;;
45043;SDS011;30784;48.490;9.688;2022-12-07T04:00:11;11.82;;;6.10;;
45043;SDS011;30784;48.490;9.688;2022-12-07T04:02:37;10.85;;;5.50;;
45043;SDS011;30784;48.490;9.688;2022-12-07T04:05:03;10.98;;;5.70;;
45043;SDS011;30784;48.490;9.688;2022-12-07T04:07:29;9.98;;;5.07;;
45043;SDS011;30784;48.490;9.688;2022-12-07T04:09:55;11.13;;;5.15;;
45043;SDS011;30784;48.490;9.688;2022-12-07T04:12:21;10.25;;;5.32;;
45043;SDS011;30784;48.490;9.688;2022-12-07T04:14:47;10.63;;;5.50;;
45043;SDS011;30784;48.490;9.688;2022-12-07T04:17:12;12.57;;;6.60;;
45043;SDS011;30784;48.490;9.688;2022-12-07T04:19:38;12.63;;;5.75;;
45043;SDS011;30784;48.490;9.688;2022-12-07T04:22:04;15.98;;;7.07;;
45043;SDS011;30784;48.490;9.688;2022-12-07T04:24:30;13.00;;;6.80;;
45043;SDS011;30784;48.490;9.688;2022-12-07T04:26:56;12.10;;;6.40;;
45043;SDS011;30784;48.490;9.688;2022-12-07T04:29:22;12.52;;;6.53;;
45043;SDS011;30784;48.490;9.688;2022-12-07T04:31:48;13.20;;;7.55;;
45043;SDS011;30784;48.490;9.688;2022-12-07T04:34:14;13.38;;;7.10;;
45043;SDS011;30784;48.490;9.688;2022-12-07T04:36:40;13.38;;;7.10;;
45043;SDS011;30784;48.490;9.688;2022-12-07T04:39:07;11.32;;;6.13;;
45043;SDS011;30784;48.490;9.688;2022-12-07T04:41:33;13.23;;;7.25;;
45043;SDS011;30784;48.490;9.688;2022-12-07T04:44:00;13.48;;;7.07;;
45043;SDS011;30784;48.490;9.688;2022-12-07T04:46:27;12.38;;;6.78;;
45043;SDS011;30784;48.490;9.688;2022-12-07T04:48:55;13.93;;;6.85;;
45043;SDS011;30784;48.490;9.688;2022-12-07T04:51:25;13.80;;;7.15;;
45043;SDS011;30784;48.490;9.688;2022-12-07T04:53:52;12.40;;;6.70;;
45043;SDS011;30784;48.490;9.688;2022-12-07T04:56:18;13.30;;;7.50;;
45043;SDS011;30784;48.490;9.688;2022-12-07T04:58:44;12.48;;;7.30;;
45043;SDS011;30784;48.490;9.688;2022-12-07T05:01:12;12.27;;;6.43;;
45043;SDS011;30784;48.490;9.688;2022-12-07T05:03:38;12.07;;;6.50;;
45043;SDS011;30784;48.490;9.688;2022-12-07T05:06:04;11.98;;;5.85;;
45043;SDS011;30784;48.490;9.688;2022-12-07T05:08:31;11.48;;;5.78;;
45043;SDS011;30784;48.490;9.688;2022-12-07T05:10:57;11.38;;;5.75;;
45043;SDS011;30784;48.490;9.688;2022-12-07T05:13:23;10.75;;;5.13;;
45043;SDS011;30784;48.490;9.688;2022-12-07T05:15:48;10.10;;;4.95;;
45043;SDS011;30784;48.490;9.688;2022-12-07T05:18:14;9.05;;;4.43;;
45043;SDS011;30784;48.490;9.688;2022-12-07T05:20:40;10.00;;;5.00;;
45043;SDS011;30784;48.490;9.688;2022-12-07T05:23:07;10.27;;;5.30;;
45043;SDS011;30784;48.490;9.688;2022-12-07T05:25:33;11.25;;;5.45;;
45043;SDS011;30784;48.490;9.688;2022-12-07T05:27:58;10.75;;;5.40;;
45043;SDS011;30784;48.490;9.688;2022-12-07T05:30:24;11.52;;;5.60;;
45043;SDS011;30784;48.490;9.688;2022-12-07T05:32:51;8.70;;;4.60;;
45043;SDS011;30784;48.490;9.688;2022-12-07T05:35:17;10.57;;;5.25;;
45043;SDS011;30784;48.490;9.688;2022-12-07T05:37:44;10.45;;;5.00;;
45043;SDS011;30784;48.490;9.688;2022-12-07T05:40:10;10.05;;;4.85;;
45043;SDS011;30784;48.490;9.688;2022-12-07T05:42:36;10.88;;;5.10;;
45043;SDS011;30784;48.490;9.688;2022-12-07T05:45:02;11.88;;;5.63;;
45043;SDS011;30784;48.490;9.688;2022-12-07T05:47:28;10.13;;;4.95;;
45043;SDS011;30784;48.490;9.688;2022-12-07T05:49:53;11.27;;;5.38;;
45043;SDS011;30784;48.490;9.688;2022-12-07T05:52:19;10.77;;;5.63;;
45043;SDS011;30784;48.490;9.688;2022-12-07T05:54:45;10.88;;;5.20;;
45043;SDS011;30784;48.490;9.688;2022-12-07T05:57:10;9.73;;;5.10;;
45043;SDS011;30784;48.490;9.688;2022-12-07T05:59:36;9.77;;;4.80;;
45043;SDS011;30784;48.490;9.688;2022-12-07T06:02:03;11.70;;;5.03;;
45043;SDS011;30784;48.490;9.688;2022-12-07T06:04:32;9.75;;;5.10;;
45043;SDS011;30784;48.490;9.688;2022-12-07T06:06:59;9.60;;;5.03;;
45043;SDS011;30784;48.490;9.688;2022-12-07T06:09:26;10.38;;;4.70;;
45043;SDS011;30784;48.490;9.688;2022-12-07T06:11:52;12.05;;;4.50;;
45043;SDS011;30784;48.490;9.688;2022-12-07T06:14:37;10.13;;;4.72;;
45043;SDS011;30784;48.490;9.688;2022-12-07T06:17:02;11.27;;;5.50;;
45043;SDS011;30784;48.490;9.688;2022-12-07T06:19:29;13.95;;;6.25;;
45043;SDS011;30784;48.490;9.688;2022-12-07T06:21:54;14.32;;;6.38;;
45043;SDS011;30784;48.490;9.688;2022-12-07T06:24:21;15.82;;;7.65;;
45043;SDS011;30784;48.490;9.688;2022-12-07T06:26:47;11.02;;;5.30;;
45043;SDS011;30784;48.490;9.688;2022-12-07T06:29:13;11.95;;;5.47;;
45043;SDS011;30784;48.490;9.688;2022-12-07T06:31:39;10.93;;;5.57;;
45043;SDS011;30784;48.490;9.688;2022-12-07T06:34:15;10.15;;;5.07;;
45043;SDS011;30784;48.490;9.688;2022-12-07T06:36:42;11.25;;;5.15;;
45043;SDS011;30784;48.490;9.688;2022-12-07T06:39:08;10.68;;;5.43;;
45043;SDS011;30784;48.490;9.688;2022-12-07T06:41:35;11.65;;;5.45;;
45043;SDS011;30784;48.490;9.688;2022-12-07T06:44:02;11.85;;;5.75;;
45043;SDS011;30784;48.490;9.688;2022-12-07T06:46:28;10.23;;;5.40;;
45043;SDS011;30784;48.490;9.688;2022-12-07T06:48:53;11.52;;;5.50;;
45043;SDS011;30784;48.490;9.688;2022-12-07T06:51:19;12.63;;;6.60;;
45043;SDS011;30784;48.490;9.688;2022-12-07T06:53:44;11.80;;;5.88;;
45043;SDS011;30784;48.490;9.688;2022-12-07T06:56:10;11.43;;;5.65;;
45043;SDS011;30784;48.490;9.688;2022-12-07T06:58:35;13.80;;;5.97;;
45043;SDS011;30784;48.490;9.688;2022-12-07T07:01:01;12.68;;;6.72;;
45043;SDS011;30784;48.490;9.688;2022-12-07T07:03:27;13.38;;;7.05;;
45043;SDS011;30784;48.490;9.688;2022-12-07T07:05:53;16.00;;;8.35;;
45043;SDS011;30784;48.490;9.688;2022-12-07T07:08:19;16.35;;;8.90;;
45043;SDS011;30784;48.490;9.688;2022-12-07T07:10:44;16.83;;;8.30;;
45043;SDS011;30784;48.490;9.688;2022-12-07T07:13:10;12.25;;;6.82;;
45043;SDS011;30784;48.490;9.688;2022-12-07T07:15:37;11.32;;;5.60;;
45043;SDS011;30784;48.490;9.688;2022-12-07T07:18:03;9.80;;;4.85;;
45043;SDS011;30784;48.490;9.688;2022-12-07T07:20:28;10.20;;;4.97;;
45043;SDS011;30784;48.490;9.688;2022-12-07T07:22:54;10.18;;;5.03;;
45043;SDS011;30784;48.490;9.688;2022-12-07T07:25:20;10.38;;;4.60;;
45043;SDS011;30784;48.490;9.688;2022-12-07T07:27:46;11.20;;;5.35;;
45043;SDS011;30784;48.490;9.688;2022-12-07T07:30:11;10.77;;;5.20;;
45043;SDS011;30784;48.490;9.688;2022-12-07T07:32:37;14.88;;;6.35;;
45043;SDS011;30784;48.490;9.688;2022-12-07T07:35:03;19.38;;;7.78;;
45043;SDS011;30784;48.490;9.688;2022-12-07T07:37:29;23.40;;;8.82;;
45043;SDS011;30784;48.490;9.688;2022-12-07T07:39:55;19.23;;;8.63;;
45043;SDS011;30784;48.490;9.688;2022-12-07T07:42:20;18.48;;;7.75;;
45043;SDS011;30784;48.490;9.688;2022-12-07T07:44:46;16.75;;;7.00;;
45043;SDS011;30784;48.490;9.688;2022-12-07T07:47:12;13.25;;;5.90;;
45043;SDS011;30784;48.490;9.688;2022-12-07T07:49:37;13.75;;;5.85;;
45043;SDS011;30784;48.490;9.688;2022-12-07T07:52:04;11.25;;;5.65;;
45043;SDS011;30784;48.490;9.688;2022-12-07T07:54:31;12.75;;;5.30;;
45043;SDS011;30784;48.490;9.688;2022-12-07T07:56:56;17.52;;;7.05;;
45043;SDS011;30784;48.490;9.688;2022-12-07T07:59:22;12.52;;;6.05;;
45043;SDS011;30784;48.490;9.688;2022-12-07T08:01:48;11.52;;;5.50;;
45043;SDS011;30784;48.490;9.688;2022-12-07T08:04:13;10.57;;;4.55;;
45043;SDS011;30784;48.490;9.688;2022-12-07T08:06:39;8.63;;;3.70;;
45043;SDS011;30784;48.490;9.688;2022-12-07T08:09:06;9.25;;;3.50;;
45043;SDS011;30784;48.490;9.688;2022-12-07T08:11:33;7.35;;;3.30;;
45043;SDS011;30784;48.490;9.688;2022-12-07T08:13:59;7.78;;;3.17;;
45043;SDS011;30784;48.490;9.688;2022-12-07T08:16:24;8.27;;;3.20;;
45043;SDS011;30784;48.490;9.688;2022-12-07T08:18:50;9.07;;;4.05;;
45043;SDS011;30784;48.490;9.688;2022-12-07T08:21:15;8.30;;;3.47;;
45043;SDS011;30784;48.490;9.688;2022-12-07T08:23:41;8.52;;;3.83;;
45043;SDS011;30784;48.490;9.688;2022-12-07T08:26:08;8.60;;;3.60;;
45043;SDS011;30784;48.490;9.688;2022-12-07T08:28:39;10.13;;;4.05;;
45043;SDS011;30784;48.490;9.688;2022-12-07T08:31:06;7.82;;;3.33;;
45043;SDS011;30784;48.490;9.688;2022-12-07T08:33:40;6.90;;;2.90;;
45043;SDS011;30784;48.490;9.688;2022-12-07T08:36:07;7.50;;;3.13;;
45043;SDS011;30784;48.490;9.688;2022-12-07T08:38:38;9.48;;;3.03;;
45043;SDS011;30784;48.490;9.688;2022-12-07T08:41:04;6.93;;;2.95;;
45043;SDS011;30784;48.490;9.688;2022-12-07T08:43:31;7.47;;;3.08;;
45043;SDS011;30784;48.490;9.688;2022-12-07T08:48:33;8.20;;;3.33;;
45043;SDS011;30784;48.490;9.688;2022-12-07T08:51:03;7.95;;;3.28;;
45043;SDS011;30784;48.490;9.688;2022-12-07T08:53:29;7.65;;;3.33;;
45043;SDS011;30784;48.490;9.688;2022-12-07T08:55:55;8.60;;;3.13;;
45043;SDS011;30784;48.490;9.688;2022-12-07T08:58:22;8.70;;;3.55;;
45043;SDS011;30784;48.490;9.688;2022-12-07T09:00:47;8.25;;;3.15;;
45043;SDS011;30784;48.490;9.688;2022-12-07T09:03:13;8.20;;;3.30;;
45043;SDS011;30784;48.490;9.688;2022-12-07T09:05:39;6.90;;;2.80;;
45043;SDS011;30784;48.490;9.688;2022-12-07T09:08:04;8.32;;;2.97;;
45043;SDS011;30784;48.490;9.688;2022-12-07T09:10:31;6.88;;;2.70;;
45043;SDS011;30784;48.490;9.688;2022-12-07T09:12:57;7.95;;;2.97;;
45043;SDS011;30784;48.490;9.688;2022-12-07T09:15:25;7.63;;;3.10;;
45043;SDS011;30784;48.490;9.688;2022-12-07T09:17:52;8.30;;;3.50;;
45043;SDS011;30784;48.490;9.688;2022-12-07T09:20:18;7.45;;;3.00;;
45043;SDS011;30784;48.490;9.688;2022-12-07T09:22:43;8.85;;;3.72;;
45043;SDS011;30784;48.490;9.688;2022-12-07T09:25:09;7.75;;;3.70;;
45043;SDS011;30784;48.490;9.688;2022-12-07T09:27:35;7.40;;;3.17;;
45043;SDS011;30784;48.490;9.688;2022-12-07T09:30:00;7.47;;;3.28;;
45043;SDS011;30784;48.490;9.688;2022-12-07T09:32:26;7.28;;;3.05;;
45043;SDS011;30784;48.490;9.688;2022-12-07T09:34:52;8.15;;;3.80;;
45043;SDS011;30784;48.490;9.688;2022-12-07T09:37:17;12.85;;;5.78;;
45043;SDS011;30784;48.490;9.688;2022-12-07T09:39:43;8.07;;;3.90;;
45043;SDS011;30784;48.490;9.688;2022-12-07T09:42:08;8.30;;;3.67;;
45043;SDS011;30784;48.490;9.688;2022-12-07T09:44:53;6.85;;;3.13;;
45043;SDS011;30784;48.490;9.688;2022-12-07T09:47:19;7.88;;;3.15;;
45043;SDS011;30784;48.490;9.688;2022-12-07T09:49:44;8.10;;;3.28;;
45043;SDS011;30784;48.490;9.688;2022-12-07T09:52:17;7.50;;;3.00;;
45043;SDS011;30784;48.490;9.688;2022-12-07T09:54:47;7.32;;;3.10;;
45043;SDS011;30784;48.490;9.688;2022-12-07T09:57:15;6.83;;;2.83;;
45043;SDS011;30784;48.490;9.688;2022-12-07T09:59:41;7.80;;;3.40;;
45043;SDS011;30784;48.490;9.688;2022-12-07T10:05:07;9.35;;;4.13;;
45043;SDS011;30784;48.490;9.688;2022-12-07T10:07:40;8.90;;;3.55;;
45043;SDS011;30784;48.490;9.688;2022-12-07T10:10:09;7.85;;;3.78;;
45043;SDS011;30784;48.490;9.688;2022-12-07T10:12:53;8.05;;;3.72;;
45043;SDS011;30784;48.490;9.688;2022-12-07T10:15:21;7.00;;;3.30;;
45043;SDS011;30784;48.490;9.688;2022-12-07T10:17:51;7.63;;;3.30;;
45043;SDS011;30784;48.490;9.688;2022-12-07T10:23:13;7.68;;;3.42;;
45043;SDS011;30784;48.490;9.688;2022-12-07T10:25:40;7.43;;;3.42;;
45043;SDS011;30784;48.490;9.688;2022-12-07T10:30:33;7.03;;;3.00;;
45043;SDS011;30784;48.490;9.688;2022-12-07T10:33:34;8.30;;;3.20;;
45043;SDS011;30784;48.490;9.688;2022-12-07T10:36:15;8.65;;;3.15;;
45043;SDS011;30784;48.490;9.688;2022-12-07T10:39:20;7.65;;;2.83;;
45043;SDS011;30784;48.490;9.688;2022-12-07T10:41:57;7.22;;;3.05;;
45043;SDS011;30784;48.490;9.688;2022-12-07T10:44:28;8.57;;;2.85;;
45043;SDS011;30784;48.490;9.688;2022-12-07T10:47:05;7.32;;;2.92;;
45043;SDS011;30784;48.490;9.688;2022-12-07T10:52:45;7.03;;;2.55;;
45043;SDS011;30784;48.490;9.688;2022-12-07T10:55:27;7.53;;;3.20;;
45043;SDS011;30784;48.490;9.688;2022-12-07T11:06:58;8.80;;;3.63;;
45043;SDS011;30784;48.490;9.688;2022-12-07T11:15:51;15.82;;;7.55;;
45043;SDS011;30784;48.490;9.688;2022-12-07T11:18:27;14.32;;;6.45;;
45043;SDS011;30784;48.490;9.688;2022-12-07T11:29:16;8.80;;;3.40;;
45043;SDS011;30784;48.490;9.688;2022-12-07T11:34:42;8.25;;;3.30;;
45043;SDS011;30784;48.490;9.688;2022-12-07T11:37:13;8.90;;;3.63;;
45043;SDS011;30784;48.490;9.688;2022-12-07T11:39:47;8.20;;;3.70;;
45043;SDS011;30784;48.490;9.688;2022-12-07T11:42:27;6.97;;;3.03;;
45043;SDS011;30784;48.490;9.688;2022-12-07T11:45:16;8.65;;;3.28;;
45043;SDS011;30784;48.490;9.688;2022-12-07T11:48:05;7.72;;;2.92;;
45043;SDS011;30784;48.490;9.688;2022-12-07T11:50:40;6.82;;;2.80;;
45043;SDS011;30784;48.490;9.688;2022-12-07T11:53:25;7.55;;;3.20;;
45043;SDS011;30784;48.490;9.688;2022-12-07T12:06:40;6.18;;;2.05;;
45043;SDS011;30784;48.490;9.688;2022-12-07T12:11:39;5.05;;;1.63;;
45043;SDS011;30784;48.490;9.688;2022-12-07T12:17:02;6.38;;;1.50;;
45043;SDS011;30784;48.490;9.688;2022-12-07T12:25:41;4.20;;;1.55;;
45043;SDS011;30784;48.490;9.688;2022-12-07T12:28:31;5.68;;;1.50;;
45043;SDS011;30784;48.490;9.688;2022-12-07T12:31:13;5.10;;;1.70;;
45043;SDS011;30784;48.490;9.688;2022-12-07T12:33:46;4.90;;;1.77;;
45043;SDS011;30784;48.490;9.688;2022-12-07T12:46:50;5.25;;;1.70;;
45043;SDS011;30784;48.490;9.688;2022-12-07T12:51:50;5.75;;;1.80;;
45043;SDS011;30784;48.490;9.688;2022-12-07T12:54:21;6.63;;;2.00;;
45043;SDS011;30784;48.490;9.688;2022-12-07T12:59:38;7.82;;;1.98;;
45043;SDS011;30784;48.490;9.688;2022-12-07T13:18:24;6.20;;;1.98;;
45043;SDS011;30784;48.490;9.688;2022-12-07T13:23:30;6.03;;;1.87;;
45043;SDS011;30784;48.490;9.688;2022-12-07T13:29:38;6.30;;;1.95;;
45043;SDS011;30784;48.490;9.688;2022-12-07T13:32:04;5.63;;;1.92;;
45043;SDS011;30784;48.490;9.688;2022-12-07T13:36:55;6.25;;;2.30;;
45043;SDS011;30784;48.490;9.688;2022-12-07T13:39:23;9.88;;;3.88;;
45043;SDS011;30784;48.490;9.688;2022-12-07T13:41:53;11.75;;;4.47;;
45043;SDS011;30784;48.490;9.688;2022-12-07T13:44:22;23.20;;;9.63;;
45043;SDS011;30784;48.490;9.688;2022-12-07T13:49:36;34.35;;;13.98;;
45043;SDS011;30784;48.490;9.688;2022-12-07T13:54:47;21.15;;;9.00;;
45043;SDS011;30784;48.490;9.688;2022-12-07T13:57:34;16.60;;;6.40;;
45043;SDS011;30784;48.490;9.688;2022-12-07T14:00:02;12.65;;;5.30;;
45043;SDS011;30784;48.490;9.688;2022-12-07T14:02:30;10.85;;;4.78;;
45043;SDS011;30784;48.490;9.688;2022-12-07T14:05:33;9.38;;;3.78;;
45043;SDS011;30784;48.490;9.688;2022-12-07T14:07:57;7.20;;;2.75;;
45043;SDS011;30784;48.490;9.688;2022-12-07T14:12:54;6.35;;;2.30;;
45043;SDS011;30784;48.490;9.688;2022-12-07T14:15:21;5.43;;;1.98;;
45043;SDS011;30784;48.490;9.688;2022-12-07T14:17:49;6.47;;;2.50;;
45043;SDS011;30784;48.490;9.688;2022-12-07T14:20:36;7.05;;;2.42;;
45043;SDS011;30784;48.490;9.688;2022-12-07T14:23:03;6.57;;;2.10;;
45043;SDS011;30784;48.490;9.688;2022-12-07T14:25:46;6.40;;;2.15;;
45043;SDS011;30784;48.490;9.688;2022-12-07T14:28:28;7.72;;;2.80;;
45043;SDS011;30784;48.490;9.688;2022-12-07T14:30:56;8.02;;;2.70;;
45043;SDS011;30784;48.490;9.688;2022-12-07T14:33:23;7.10;;;2.47;;
45043;SDS011;30784;48.490;9.688;2022-12-07T14:35:50;7.10;;;2.45;;
45043;SDS011;30784;48.490;9.688;2022-12-07T14:38:20;7.57;;;3.13;;
45043;SDS011;30784;48.490;9.688;2022-12-07T14:40:48;7.82;;;2.83;;
45043;SDS011;30784;48.490;9.688;2022-12-07T14:43:15;8.85;;;3.10;;
45043;SDS011;30784;48.490;9.688;2022-12-07T14:45:42;9.52;;;3.55;;
45043;SDS011;30784;48.490;9.688;2022-12-07T14:48:12;8.75;;;3.45;;
45043;SDS011;30784;48.490;9.688;2022-12-07T14:50:49;7.47;;;3.00;;
45043;SDS011;30784;48.490;9.688;2022-12-07T14:53:17;6.70;;;2.60;;
45043;SDS011;30784;48.490;9.688;2022-12-07T14:55:47;7.45;;;2.97;;
45043;SDS011;30784;48.490;9.688;2022-12-07T14:58:16;7.25;;;3.53;;
45043;SDS011;30784;48.490;9.688;2022-12-07T15:00:43;8.27;;;3.38;;
45043;SDS011;30784;48.490;9.688;2022-12-07T15:03:09;8.38;;;3.13;;
45043;SDS011;30784;48.490;9.688;2022-12-07T15:05:35;9.10;;;3.72;;
45043;SDS011;30784;48.490;9.688;2022-12-07T15:08:02;14.30;;;6.80;;
45043;SDS011;30784;48.490;9.688;2022-12-07T15:10:29;14.10;;;6.38;;
45043;SDS011;30784;48.490;9.688;2022-12-07T15:13:00;14.27;;;8.00;;
45043;SDS011;30784;48.490;9.688;2022-12-07T15:15:46;12.93;;;6.60;;
45043;SDS011;30784;48.490;9.688;2022-12-07T15:18:13;9.63;;;4.80;;
45043;SDS011;30784;48.490;9.688;2022-12-07T15:20:39;8.68;;;3.63;;
45043;SDS011;30784;48.490;9.688;2022-12-07T15:23:05;9.90;;;3.35;;
45043;SDS011;30784;48.490;9.688;2022-12-07T15:25:31;8.55;;;3.60;;
45043;SDS011;30784;48.490;9.688;2022-12-07T15:27:57;7.75;;;3.17;;
45043;SDS011;30784;48.490;9.688;2022-12-07T15:30:22;8.70;;;3.35;;
45043;SDS011;30784;48.490;9.688;2022-12-07T15:32:49;8.38;;;3.38;;
45043;SDS011;30784;48.490;9.688;2022-12-07T15:35:17;9.27;;;4.00;;
45043;SDS011;30784;48.490;9.688;2022-12-07T15:37:43;10.50;;;4.03;;
45043;SDS011;30784;48.490;9.688;2022-12-07T15:40:09;9.70;;;3.90;;
45043;SDS011;30784;48.490;9.688;2022-12-07T15:42:36;9.40;;;4.22;;
45043;SDS011;30784;48.490;9.688;2022-12-07T15:45:02;7.97;;;3.30;;
45043;SDS011;30784;48.490;9.688;2022-12-07T15:47:39;11.45;;;3.85;;
45043;SDS011;30784;48.490;9.688;2022-12-07T15:50:07;8.98;;;4.38;;
45043;SDS011;30784;48.490;9.688;2022-12-07T15:52:35;8.88;;;3.65;;
45043;SDS011;30784;48.490;9.688;2022-12-07T15:55:01;8.02;;;3.42;;
45043;SDS011;30784;48.490;9.688;2022-12-07T15:57:31;8.77;;;3.60;;
45043;SDS011;30784;48.490;9.688;2022-12-07T15:59:58;8.20;;;3.10;;
45043;SDS011;30784;48.490;9.688;2022-12-07T16:02:24;9.15;;;3.88;;
45043;SDS011;30784;48.490;9.688;2022-12-07T16:04:50;8.90;;;3.85;;
45043;SDS011;30784;48.490;9.688;2022-12-07T16:07:16;8.77;;;4.25;;
45043;SDS011;30784;48.490;9.688;2022-12-07T16:09:43;9.25;;;3.90;;
45043;SDS011;30784;48.490;9.688;2022-12-07T16:12:09;8.77;;;3.83;;
45043;SDS011;30784;48.490;9.688;2022-12-07T16:14:37;8.98;;;3.63;;
45043;SDS011;30784;48.490;9.688;2022-12-07T16:17:03;8.38;;;3.70;;
45043;SDS011;30784;48.490;9.688;2022-12-07T16:19:29;9.40;;;4.18;;
45043;SDS011;30784;48.490;9.688;2022-12-07T16:21:56;9.68;;;4.43;;
45043;SDS011;30784;48.490;9.688;2022-12-07T16:24:21;10.82;;;4.35;;
45043;SDS011;30784;48.490;9.688;2022-12-07T16:26:47;9.57;;;4.05;;
45043;SDS011;30784;48.490;9.688;2022-12-07T16:29:14;10.38;;;4.30;;
45043;SDS011;30784;48.490;9.688;2022-12-07T16:31:39;9.15;;;4.18;;
45043;SDS011;30784;48.490;9.688;2022-12-07T16:34:05;8.95;;;4.15;;
45043;SDS011;30784;48.490;9.688;2022-12-07T16:36:31;9.30;;;4.03;;
45043;SDS011;30784;48.490;9.688;2022-12-07T16:39:00;8.20;;;4.00;;
45043;SDS011;30784;48.490;9.688;2022-12-07T16:41:26;9.30;;;4.30;;
45043;SDS011;30784;48.490;9.688;2022-12-07T16:43:51;9.43;;;4.90;;
45043;SDS011;30784;48.490;9.688;2022-12-07T16:46:17;9.48;;;4.68;;
45043;SDS011;30784;48.490;9.688;2022-12-07T16:48:43;10.73;;;5.70;;
45043;SDS011;30784;48.490;9.688;2022-12-07T16:51:09;10.25;;;4.80;;
45043;SDS011;30784;48.490;9.688;2022-12-07T16:53:37;10.52;;;4.80;;
45043;SDS011;30784;48.490;9.688;2022-12-07T16:56:05;9.70;;;4.45;;
45043;SDS011;30784;48.490;9.688;2022-12-07T16:58:39;15.23;;;6.70;;
45043;SDS011;30784;48.490;9.688;2022-12-07T17:01:15;12.15;;;6.00;;
45043;SDS011;30784;48.490;9.688;2022-12-07T17:03:43;13.30;;;6.32;;
45043;SDS011;30784;48.490;9.688;2022-12-07T17:06:13;22.50;;;10.75;;
45043;SDS011;30784;48.490;9.688;2022-12-07T17:08:43;20.05;;;9.70;;
45043;SDS011;30784;48.490;9.688;2022-12-07T17:11:10;13.10;;;6.22;;
45043;SDS011;30784;48.490;9.688;2022-12-07T17:13:46;14.10;;;6.63;;
45043;SDS011;30784;48.490;9.688;2022-12-07T17:16:31;14.77;;;6.90;;
45043;SDS011;30784;48.490;9.688;2022-12-07T17:18:56;19.75;;;8.43;;
45043;SDS011;30784;48.490;9.688;2022-12-07T17:21:23;14.90;;;7.03;;
45043;SDS011;30784;48.490;9.688;2022-12-07T17:23:49;14.95;;;6.82;;